sensor_id;sensor_type;location;lat;lon;timestamp;P1;durP1;ratioP1;P2;durP2;ratioP2
66972;SDS011;53902;51.466;-2.586;2022-08-04T00:04:16;8.75;;;1.58;;
66972;SDS011;53902;51.466;-2.586;2022-08-04T00:12:19;9.00;;;1.80;;
66972;SDS011;53902;51.466;-2.586;2022-08-04T00:14:49;9.35;;;1.70;;
66972;SDS011;53902;51.466;-2.586;2022-08-04T00:17:22;9.15;;;2.00;;
66972;SDS011;53902;51.466;-2.586;2022-08-04T00:19:52;11.23;;;2.13;;
66972;SDS011;53902;51.466;-2.586;2022-08-04T00:22:21;11.10;;;2.75;;
66972;SDS011;53902;51.466;-2.586;2022-08-04T00:24:51;10.20;;;1.83;;
66972;SDS011;53902;51.466;-2.586;2022-08-04T00:27:19;8.30;;;1.60;;
66972;SDS011;53902;51.466;-2.586;2022-08-04T00:29:44;6.33;;;1.70;;
66972;SDS011;53902;51.466;-2.586;2022-08-04T00:32:11;7.78;;;1.77;;
66972;SDS011;53902;51.466;-2.586;2022-08-04T00:34:36;11.83;;;2.07;;
66972;SDS011;53902;51.466;-2.586;2022-08-04T00:37:05;10.88;;;2.25;;
66972;SDS011;53902;51.466;-2.586;2022-08-04T00:39:38;6.20;;;2.15;;
66972;SDS011;53902;51.466;-2.586;2022-08-04T00:50:33;7.22;;;2.00;;
66972;SDS011;53902;51.466;-2.586;2022-08-04T01:04:15;7.78;;;1.90;;
66972;SDS011;53902;51.466;-2.586;2022-08-04T01:12:42;8.25;;;2.13;;
66972;SDS011;53902;51.466;-2.586;2022-08-04T01:17:59;10.25;;;2.13;;
66972;SDS011;53902;51.466;-2.586;2022-08-04T01:20:34;13.77;;;2.75;;
66972;SDS011;53902;51.466;-2.586;2022-08-04T01:29:07;13.23;;;2.58;;
66972;SDS011;53902;51.466;-2.586;2022-08-04T01:34:04;14.63;;;2.80;;
66972;SDS011;53902;51.466;-2.586;2022-08-04T01:36:34;10.18;;;2.60;;
66972;SDS011;53902;51.466;-2.586;2022-08-04T01:38:59;8.73;;;2.60;;
66972;SDS011;53902;51.466;-2.586;2022-08-04T01:41:45;8.98;;;2.45;;
66972;SDS011;53902;51.466;-2.586;2022-08-04T01:44:11;8.93;;;2.43;;
66972;SDS011;53902;51.466;-2.586;2022-08-04T01:49:03;13.93;;;2.93;;
66972;SDS011;53902;51.466;-2.586;2022-08-04T01:51:32;9.05;;;2.38;;
66972;SDS011;53902;51.466;-2.586;2022-08-04T01:54:02;7.45;;;2.40;;
66972;SDS011;53902;51.466;-2.586;2022-08-04T01:56:28;8.87;;;2.50;;
66972;SDS011;53902;51.466;-2.586;2022-08-04T01:59:00;12.52;;;2.83;;
66972;SDS011;53902;51.466;-2.586;2022-08-04T02:01:27;12.10;;;3.00;;
66972;SDS011;53902;51.466;-2.586;2022-08-04T02:03:52;9.47;;;2.60;;
66972;SDS011;53902;51.466;-2.586;2022-08-04T02:06:28;10.87;;;3.30;;
66972;SDS011;53902;51.466;-2.586;2022-08-04T02:11:29;9.55;;;2.15;;
66972;SDS011;53902;51.466;-2.586;2022-08-04T02:16:28;5.57;;;2.17;;
66972;SDS011;53902;51.466;-2.586;2022-08-04T02:21:41;8.77;;;2.30;;
66972;SDS011;53902;51.466;-2.586;2022-08-04T02:24:11;10.40;;;2.33;;
66972;SDS011;53902;51.466;-2.586;2022-08-04T02:26:41;4.90;;;2.00;;
66972;SDS011;53902;51.466;-2.586;2022-08-04T02:29:20;8.90;;;2.30;;
66972;SDS011;53902;51.466;-2.586;2022-08-04T02:31:55;6.55;;;2.15;;
66972;SDS011;53902;51.466;-2.586;2022-08-04T02:34:38;7.30;;;1.98;;
66972;SDS011;53902;51.466;-2.586;2022-08-04T02:37:09;5.63;;;1.95;;
66972;SDS011;53902;51.466;-2.586;2022-08-04T02:39:35;4.10;;;1.90;;
66972;SDS011;53902;51.466;-2.586;2022-08-04T02:42:04;6.82;;;1.90;;
66972;SDS011;53902;51.466;-2.586;2022-08-04T02:44:30;10.70;;;2.17;;
66972;SDS011;53902;51.466;-2.586;2022-08-04T02:46:57;6.90;;;2.00;;
66972;SDS011;53902;51.466;-2.586;2022-08-04T02:49:30;5.13;;;1.88;;
66972;SDS011;53902;51.466;-2.586;2022-08-04T02:52:00;6.25;;;1.85;;
66972;SDS011;53902;51.466;-2.586;2022-08-04T02:54:38;7.80;;;1.92;;
66972;SDS011;53902;51.466;-2.586;2022-08-04T02:57:10;5.63;;;1.80;;
66972;SDS011;53902;51.466;-2.586;2022-08-04T03:00:22;6.63;;;1.90;;
66972;SDS011;53902;51.466;-2.586;2022-08-04T03:05:54;5.57;;;1.75;;
66972;SDS011;53902;51.466;-2.586;2022-08-04T03:19:40;8.07;;;2.30;;
66972;SDS011;53902;51.466;-2.586;2022-08-04T03:33:41;8.25;;;2.47;;
66972;SDS011;53902;51.466;-2.586;2022-08-04T03:36:57;5.05;;;2.55;;
66972;SDS011;53902;51.466;-2.586;2022-08-04T03:56:50;8.38;;;2.22;;
66972;SDS011;53902;51.466;-2.586;2022-08-04T04:00:03;7.15;;;1.90;;
66972;SDS011;53902;51.466;-2.586;2022-08-04T04:02:39;5.07;;;1.85;;
66972;SDS011;53902;51.466;-2.586;2022-08-04T04:13:54;6.55;;;2.60;;
66972;SDS011;53902;51.466;-2.586;2022-08-04T04:22:28;8.60;;;2.50;;
66972;SDS011;53902;51.466;-2.586;2022-08-04T04:30:41;5.15;;;1.88;;
66972;SDS011;53902;51.466;-2.586;2022-08-04T04:36:07;7.75;;;2.25;;
66972;SDS011;53902;51.466;-2.586;2022-08-04T04:38:48;8.60;;;2.83;;
66972;SDS011;53902;51.466;-2.586;2022-08-04T04:41:34;8.90;;;2.63;;
66972;SDS011;53902;51.466;-2.586;2022-08-04T04:49:34;8.82;;;2.50;;
66972;SDS011;53902;51.466;-2.586;2022-08-04T04:52:10;8.77;;;2.58;;
66972;SDS011;53902;51.466;-2.586;2022-08-04T04:57:52;8.27;;;2.53;;
66972;SDS011;53902;51.466;-2.586;2022-08-04T05:00:49;6.28;;;2.40;;
66972;SDS011;53902;51.466;-2.586;2022-08-04T05:03:35;6.88;;;2.63;;
66972;SDS011;53902;51.466;-2.586;2022-08-04T05:14:29;6.93;;;2.50;;
66972;SDS011;53902;51.466;-2.586;2022-08-04T05:30:46;6.57;;;2.60;;
66972;SDS011;53902;51.466;-2.586;2022-08-04T05:33:17;5.63;;;2.40;;
66972;SDS011;53902;51.466;-2.586;2022-08-04T05:35:47;10.48;;;2.90;;
66972;SDS011;53902;51.466;-2.586;2022-08-04T05:38:15;6.90;;;2.67;;
66972;SDS011;53902;51.466;-2.586;2022-08-04T05:40:47;8.68;;;2.80;;
66972;SDS011;53902;51.466;-2.586;2022-08-04T05:48:28;9.60;;;2.90;;
66972;SDS011;53902;51.466;-2.586;2022-08-04T05:50:56;6.88;;;2.60;;
66972;SDS011;53902;51.466;-2.586;2022-08-04T05:53:25;7.72;;;2.47;;
66972;SDS011;53902;51.466;-2.586;2022-08-04T05:55:53;6.30;;;2.53;;
66972;SDS011;53902;51.466;-2.586;2022-08-04T05:58:19;9.05;;;2.55;;
66972;SDS011;53902;51.466;-2.586;2022-08-04T06:00:48;8.52;;;3.15;;
66972;SDS011;53902;51.466;-2.586;2022-08-04T06:03:14;13.32;;;3.83;;
66972;SDS011;53902;51.466;-2.586;2022-08-04T06:05:41;11.97;;;2.90;;
66972;SDS011;53902;51.466;-2.586;2022-08-04T06:08:09;12.45;;;2.85;;
66972;SDS011;53902;51.466;-2.586;2022-08-04T06:10:36;10.07;;;2.70;;
66972;SDS011;53902;51.466;-2.586;2022-08-04T06:13:05;8.85;;;3.35;;
66972;SDS011;53902;51.466;-2.586;2022-08-04T06:15:35;12.48;;;2.85;;
66972;SDS011;53902;51.466;-2.586;2022-08-04T06:18:03;5.80;;;2.35;;
66972;SDS011;53902;51.466;-2.586;2022-08-04T06:20:37;7.78;;;2.58;;
66972;SDS011;53902;51.466;-2.586;2022-08-04T06:23:06;11.10;;;2.80;;
66972;SDS011;53902;51.466;-2.586;2022-08-04T06:25:36;6.10;;;2.53;;
66972;SDS011;53902;51.466;-2.586;2022-08-04T06:28:07;7.20;;;2.15;;
66972;SDS011;53902;51.466;-2.586;2022-08-04T06:30:32;7.38;;;2.35;;
66972;SDS011;53902;51.466;-2.586;2022-08-04T06:32:59;6.53;;;2.23;;
66972;SDS011;53902;51.466;-2.586;2022-08-04T06:35:27;14.90;;;2.65;;
66972;SDS011;53902;51.466;-2.586;2022-08-04T06:37:54;8.73;;;2.13;;
66972;SDS011;53902;51.466;-2.586;2022-08-04T06:40:21;6.05;;;1.98;;
66972;SDS011;53902;51.466;-2.586;2022-08-04T06:42:50;6.82;;;2.10;;
66972;SDS011;53902;51.466;-2.586;2022-08-04T06:45:19;6.93;;;1.77;;
66972;SDS011;53902;51.466;-2.586;2022-08-04T06:47:44;5.67;;;2.00;;
66972;SDS011;53902;51.466;-2.586;2022-08-04T06:52:37;5.70;;;2.07;;
66972;SDS011;53902;51.466;-2.586;2022-08-04T06:55:03;6.47;;;2.15;;
66972;SDS011;53902;51.466;-2.586;2022-08-04T06:57:30;4.80;;;1.90;;
66972;SDS011;53902;51.466;-2.586;2022-08-04T07:00:01;5.90;;;2.00;;
66972;SDS011;53902;51.466;-2.586;2022-08-04T07:02:41;5.75;;;1.80;;
66972;SDS011;53902;51.466;-2.586;2022-08-04T07:05:11;6.88;;;2.28;;
66972;SDS011;53902;51.466;-2.586;2022-08-04T07:07:40;5.33;;;2.07;;
66972;SDS011;53902;51.466;-2.586;2022-08-04T07:10:06;5.70;;;2.00;;
66972;SDS011;53902;51.466;-2.586;2022-08-04T07:12:33;2.63;;;1.55;;
66972;SDS011;53902;51.466;-2.586;2022-08-04T07:14:59;5.37;;;1.90;;
66972;SDS011;53902;51.466;-2.586;2022-08-04T07:17:28;10.30;;;1.60;;
66972;SDS011;53902;51.466;-2.586;2022-08-04T07:19:54;5.40;;;1.80;;
66972;SDS011;53902;51.466;-2.586;2022-08-04T07:22:20;5.25;;;1.67;;
66972;SDS011;53902;51.466;-2.586;2022-08-04T07:24:46;4.67;;;2.07;;
66972;SDS011;53902;51.466;-2.586;2022-08-04T07:27:11;4.27;;;1.50;;
66972;SDS011;53902;51.466;-2.586;2022-08-04T07:29:39;4.00;;;1.80;;
66972;SDS011;53902;51.466;-2.586;2022-08-04T07:32:07;5.27;;;2.30;;
66972;SDS011;53902;51.466;-2.586;2022-08-04T07:34:34;12.40;;;2.13;;
66972;SDS011;53902;51.466;-2.586;2022-08-04T07:37:04;7.20;;;2.30;;
66972;SDS011;53902;51.466;-2.586;2022-08-04T07:39:33;5.30;;;1.98;;
66972;SDS011;53902;51.466;-2.586;2022-08-04T07:42:03;6.20;;;1.95;;
66972;SDS011;53902;51.466;-2.586;2022-08-04T07:44:29;7.47;;;1.70;;
66972;SDS011;53902;51.466;-2.586;2022-08-04T07:46:57;4.20;;;1.60;;
66972;SDS011;53902;51.466;-2.586;2022-08-04T07:49:24;5.28;;;1.50;;
66972;SDS011;53902;51.466;-2.586;2022-08-04T07:51:50;4.85;;;1.80;;
66972;SDS011;53902;51.466;-2.586;2022-08-04T07:54:16;4.03;;;1.80;;
66972;SDS011;53902;51.466;-2.586;2022-08-04T07:56:42;6.47;;;2.47;;
66972;SDS011;53902;51.466;-2.586;2022-08-04T07:59:08;6.30;;;1.37;;
66972;SDS011;53902;51.466;-2.586;2022-08-04T08:01:34;8.70;;;1.70;;
66972;SDS011;53902;51.466;-2.586;2022-08-04T08:04:05;7.20;;;1.65;;
66972;SDS011;53902;51.466;-2.586;2022-08-04T08:06:36;7.43;;;1.73;;
66972;SDS011;53902;51.466;-2.586;2022-08-04T08:09:08;3.08;;;1.48;;
66972;SDS011;53902;51.466;-2.586;2022-08-04T08:11:38;5.10;;;1.77;;
66972;SDS011;53902;51.466;-2.586;2022-08-04T08:14:04;4.77;;;1.70;;
66972;SDS011;53902;51.466;-2.586;2022-08-04T08:16:29;6.50;;;1.57;;
66972;SDS011;53902;51.466;-2.586;2022-08-04T08:18:58;4.63;;;1.50;;
66972;SDS011;53902;51.466;-2.586;2022-08-04T08:21:24;7.28;;;1.55;;
66972;SDS011;53902;51.466;-2.586;2022-08-04T08:23:50;1.30;;;1.10;;
66972;SDS011;53902;51.466;-2.586;2022-08-04T08:26:15;5.97;;;1.70;;
66972;SDS011;53902;51.466;-2.586;2022-08-04T08:28:44;4.78;;;1.63;;
66972;SDS011;53902;51.466;-2.586;2022-08-04T08:31:11;4.07;;;1.40;;
66972;SDS011;53902;51.466;-2.586;2022-08-04T08:33:39;3.30;;;1.40;;
66972;SDS011;53902;51.466;-2.586;2022-08-04T08:36:22;3.17;;;1.27;;
66972;SDS011;53902;51.466;-2.586;2022-08-04T08:38:56;3.95;;;1.20;;
66972;SDS011;53902;51.466;-2.586;2022-08-04T08:49:21;4.53;;;1.30;;
66972;SDS011;53902;51.466;-2.586;2022-08-04T09:00:06;3.08;;;1.40;;
66972;SDS011;53902;51.466;-2.586;2022-08-04T09:02:48;5.90;;;1.77;;
66972;SDS011;53902;51.466;-2.586;2022-08-04T09:11:21;6.15;;;1.50;;
66972;SDS011;53902;51.466;-2.586;2022-08-04T09:13:56;3.45;;;1.15;;
66972;SDS011;53902;51.466;-2.586;2022-08-04T09:16:36;3.25;;;1.27;;
66972;SDS011;53902;51.466;-2.586;2022-08-04T09:19:07;2.45;;;1.40;;
66972;SDS011;53902;51.466;-2.586;2022-08-04T09:21:54;6.22;;;1.38;;
66972;SDS011;53902;51.466;-2.586;2022-08-04T09:24:38;2.28;;;1.10;;
66972;SDS011;53902;51.466;-2.586;2022-08-04T09:30:03;4.85;;;1.05;;
66972;SDS011;53902;51.466;-2.586;2022-08-04T09:46:09;2.63;;;1.08;;
66972;SDS011;53902;51.466;-2.586;2022-08-04T09:54:18;5.25;;;0.93;;
66972;SDS011;53902;51.466;-2.586;2022-08-04T10:02:05;2.80;;;0.90;;
66972;SDS011;53902;51.466;-2.586;2022-08-04T10:04:34;2.50;;;0.90;;
66972;SDS011;53902;51.466;-2.586;2022-08-04T10:07:08;1.85;;;0.73;;
66972;SDS011;53902;51.466;-2.586;2022-08-04T10:15:33;2.40;;;0.90;;
66972;SDS011;53902;51.466;-2.586;2022-08-04T10:29:13;3.20;;;0.80;;
66972;SDS011;53902;51.466;-2.586;2022-08-04T10:32:25;1.67;;;0.70;;
66972;SDS011;53902;51.466;-2.586;2022-08-04T10:37:59;5.70;;;0.90;;
66972;SDS011;53902;51.466;-2.586;2022-08-04T10:40:45;1.58;;;0.90;;
66972;SDS011;53902;51.466;-2.586;2022-08-04T10:45:57;5.10;;;0.90;;
66972;SDS011;53902;51.466;-2.586;2022-08-04T10:48:50;1.50;;;0.80;;
66972;SDS011;53902;51.466;-2.586;2022-08-04T10:53:44;3.58;;;0.90;;
66972;SDS011;53902;51.466;-2.586;2022-08-04T10:56:39;3.28;;;1.15;;
66972;SDS011;53902;51.466;-2.586;2022-08-04T10:59:28;1.98;;;0.73;;
66972;SDS011;53902;51.466;-2.586;2022-08-04T11:01:58;5.90;;;0.80;;
66972;SDS011;53902;51.466;-2.586;2022-08-04T11:04:39;5.75;;;1.00;;
66972;SDS011;53902;51.466;-2.586;2022-08-04T11:07:10;3.72;;;0.90;;
66972;SDS011;53902;51.466;-2.586;2022-08-04T11:09:36;4.23;;;0.80;;
66972;SDS011;53902;51.466;-2.586;2022-08-04T11:12:16;4.03;;;0.90;;
66972;SDS011;53902;51.466;-2.586;2022-08-04T11:14:55;2.97;;;0.90;;
66972;SDS011;53902;51.466;-2.586;2022-08-04T11:17:33;2.45;;;0.85;;
66972;SDS011;53902;51.466;-2.586;2022-08-04T11:22:28;2.58;;;0.73;;
66972;SDS011;53902;51.466;-2.586;2022-08-04T11:25:12;1.65;;;0.70;;
66972;SDS011;53902;51.466;-2.586;2022-08-04T11:30:51;2.40;;;0.70;;
66972;SDS011;53902;51.466;-2.586;2022-08-04T11:36:02;3.10;;;0.80;;
66972;SDS011;53902;51.466;-2.586;2022-08-04T11:44:29;1.75;;;0.77;;
66972;SDS011;53902;51.466;-2.586;2022-08-04T11:47:02;1.13;;;0.70;;
66972;SDS011;53902;51.466;-2.586;2022-08-04T11:49:42;3.08;;;0.80;;
66972;SDS011;53902;51.466;-2.586;2022-08-04T11:52:12;3.63;;;0.70;;
66972;SDS011;53902;51.466;-2.586;2022-08-04T11:54:41;2.50;;;1.00;;
66972;SDS011;53902;51.466;-2.586;2022-08-04T11:57:07;2.47;;;0.80;;
66972;SDS011;53902;51.466;-2.586;2022-08-04T11:59:34;4.32;;;1.02;;
66972;SDS011;53902;51.466;-2.586;2022-08-04T12:07:29;3.40;;;0.88;;
66972;SDS011;53902;51.466;-2.586;2022-08-04T12:16:14;2.05;;;0.80;;
66972;SDS011;53902;51.466;-2.586;2022-08-04T12:18:49;3.42;;;0.70;;
66972;SDS011;53902;51.466;-2.586;2022-08-04T12:21:30;1.77;;;0.70;;
66972;SDS011;53902;51.466;-2.586;2022-08-04T12:24:13;3.22;;;0.65;;
66972;SDS011;53902;51.466;-2.586;2022-08-04T12:26:57;1.85;;;0.80;;
66972;SDS011;53902;51.466;-2.586;2022-08-04T12:29:29;2.22;;;0.70;;
66972;SDS011;53902;51.466;-2.586;2022-08-04T12:32:00;1.70;;;0.70;;
66972;SDS011;53902;51.466;-2.586;2022-08-04T12:34:34;2.05;;;0.60;;
66972;SDS011;53902;51.466;-2.586;2022-08-04T12:39:50;6.22;;;0.80;;
66972;SDS011;53902;51.466;-2.586;2022-08-04T12:42:18;3.22;;;0.70;;
66972;SDS011;53902;51.466;-2.586;2022-08-04T12:44:52;1.35;;;0.70;;
66972;SDS011;53902;51.466;-2.586;2022-08-04T12:47:21;3.55;;;1.02;;
66972;SDS011;53902;51.466;-2.586;2022-08-04T12:49:48;4.00;;;0.70;;
66972;SDS011;53902;51.466;-2.586;2022-08-04T12:52:14;3.20;;;0.70;;
66972;SDS011;53902;51.466;-2.586;2022-08-04T12:54:45;2.03;;;0.55;;
66972;SDS011;53902;51.466;-2.586;2022-08-04T12:57:20;1.10;;;0.85;;
66972;SDS011;53902;51.466;-2.586;2022-08-04T12:59:48;3.42;;;0.80;;
66972;SDS011;53902;51.466;-2.586;2022-08-04T13:02:17;3.75;;;0.75;;
66972;SDS011;53902;51.466;-2.586;2022-08-04T13:04:51;2.72;;;1.23;;
66972;SDS011;53902;51.466;-2.586;2022-08-04T13:07:19;1.73;;;0.73;;
66972;SDS011;53902;51.466;-2.586;2022-08-04T13:09:45;3.30;;;0.70;;
66972;SDS011;53902;51.466;-2.586;2022-08-04T13:12:12;1.77;;;0.80;;
66972;SDS011;53902;51.466;-2.586;2022-08-04T13:14:39;4.22;;;0.90;;
66972;SDS011;53902;51.466;-2.586;2022-08-04T13:17:12;4.78;;;0.70;;
66972;SDS011;53902;51.466;-2.586;2022-08-04T13:19:44;3.33;;;0.68;;
66972;SDS011;53902;51.466;-2.586;2022-08-04T13:22:14;1.20;;;0.60;;
66972;SDS011;53902;51.466;-2.586;2022-08-04T13:24:48;2.72;;;0.65;;
66972;SDS011;53902;51.466;-2.586;2022-08-04T13:27:14;2.88;;;0.55;;
66972;SDS011;53902;51.466;-2.586;2022-08-04T13:29:46;1.92;;;0.70;;
66972;SDS011;53902;51.466;-2.586;2022-08-04T13:32:14;2.75;;;0.77;;
66972;SDS011;53902;51.466;-2.586;2022-08-04T13:34:44;2.28;;;0.88;;
66972;SDS011;53902;51.466;-2.586;2022-08-04T13:37:10;2.17;;;0.70;;
66972;SDS011;53902;51.466;-2.586;2022-08-04T13:39:37;2.72;;;0.60;;
66972;SDS011;53902;51.466;-2.586;2022-08-04T13:42:11;2.55;;;0.70;;
66972;SDS011;53902;51.466;-2.586;2022-08-04T13:44:38;1.50;;;0.60;;
66972;SDS011;53902;51.466;-2.586;2022-08-04T13:47:14;1.95;;;0.60;;
66972;SDS011;53902;51.466;-2.586;2022-08-04T13:52:41;2.80;;;1.05;;
66972;SDS011;53902;51.466;-2.586;2022-08-04T13:55:08;1.25;;;0.60;;
66972;SDS011;53902;51.466;-2.586;2022-08-04T13:58:01;5.90;;;0.60;;
66972;SDS011;53902;51.466;-2.586;2022-08-04T14:13:32;1.10;;;0.60;;
66972;SDS011;53902;51.466;-2.586;2022-08-04T14:15:58;0.50;;;0.50;;
66972;SDS011;53902;51.466;-2.586;2022-08-04T14:18:28;3.07;;;0.80;;
66972;SDS011;53902;51.466;-2.586;2022-08-04T14:21:07;1.80;;;0.85;;
66972;SDS011;53902;51.466;-2.586;2022-08-04T14:26:15;1.35;;;0.60;;
66972;SDS011;53902;51.466;-2.586;2022-08-04T14:28:41;1.23;;;0.60;;
66972;SDS011;53902;51.466;-2.586;2022-08-04T14:31:12;4.50;;;0.60;;
66972;SDS011;53902;51.466;-2.586;2022-08-04T14:33:48;1.55;;;0.77;;
66972;SDS011;53902;51.466;-2.586;2022-08-04T14:36:19;1.23;;;0.60;;
66972;SDS011;53902;51.466;-2.586;2022-08-04T14:41:26;2.22;;;0.70;;
66972;SDS011;53902;51.466;-2.586;2022-08-04T14:46:20;1.90;;;0.70;;
66972;SDS011;53902;51.466;-2.586;2022-08-04T14:51:50;1.27;;;0.63;;
66972;SDS011;53902;51.466;-2.586;2022-08-04T14:54:15;2.08;;;0.65;;
66972;SDS011;53902;51.466;-2.586;2022-08-04T14:56:41;0.93;;;0.60;;
66972;SDS011;53902;51.466;-2.586;2022-08-04T14:59:16;2.38;;;0.60;;
66972;SDS011;53902;51.466;-2.586;2022-08-04T15:01:41;1.63;;;0.80;;
66972;SDS011;53902;51.466;-2.586;2022-08-04T15:04:08;2.75;;;0.60;;
66972;SDS011;53902;51.466;-2.586;2022-08-04T15:06:35;1.55;;;0.77;;
66972;SDS011;53902;51.466;-2.586;2022-08-04T15:09:02;0.87;;;0.60;;
66972;SDS011;53902;51.466;-2.586;2022-08-04T15:11:33;0.98;;;0.50;;
66972;SDS011;53902;51.466;-2.586;2022-08-04T15:16:28;0.88;;;0.50;;
66972;SDS011;53902;51.466;-2.586;2022-08-04T15:18:55;0.57;;;0.55;;
66972;SDS011;53902;51.466;-2.586;2022-08-04T15:21:28;0.90;;;0.55;;
66972;SDS011;53902;51.466;-2.586;2022-08-04T15:23:55;2.13;;;0.70;;
66972;SDS011;53902;51.466;-2.586;2022-08-04T15:26:30;2.75;;;0.70;;
66972;SDS011;53902;51.466;-2.586;2022-08-04T15:29:13;2.20;;;0.80;;
66972;SDS011;53902;51.466;-2.586;2022-08-04T15:31:43;2.78;;;0.50;;
66972;SDS011;53902;51.466;-2.586;2022-08-04T15:34:10;1.67;;;0.52;;
66972;SDS011;53902;51.466;-2.586;2022-08-04T15:39:37;0.82;;;0.50;;
66972;SDS011;53902;51.466;-2.586;2022-08-04T15:45:03;1.85;;;0.50;;
66972;SDS011;53902;51.466;-2.586;2022-08-04T15:47:36;2.05;;;0.82;;
66972;SDS011;53902;51.466;-2.586;2022-08-04T15:52:27;4.37;;;0.47;;
66972;SDS011;53902;51.466;-2.586;2022-08-04T15:55:28;1.57;;;0.50;;
66972;SDS011;53902;51.466;-2.586;2022-08-04T15:58:15;1.00;;;0.50;;
66972;SDS011;53902;51.466;-2.586;2022-08-04T16:19:13;1.20;;;0.50;;
66972;SDS011;53902;51.466;-2.586;2022-08-04T16:21:56;0.57;;;0.50;;
66972;SDS011;53902;51.466;-2.586;2022-08-04T16:26:54;0.47;;;0.35;;
66972;SDS011;53902;51.466;-2.586;2022-08-04T16:34:37;3.17;;;1.48;;
66972;SDS011;53902;51.466;-2.586;2022-08-04T16:37:06;1.42;;;0.65;;
66972;SDS011;53902;51.466;-2.586;2022-08-04T16:39:43;2.85;;;0.50;;
66972;SDS011;53902;51.466;-2.586;2022-08-04T16:50:28;1.52;;;0.40;;
66972;SDS011;53902;51.466;-2.586;2022-08-04T16:52:54;1.67;;;0.57;;
66972;SDS011;53902;51.466;-2.586;2022-08-04T16:55:24;0.40;;;0.40;;
66972;SDS011;53902;51.466;-2.586;2022-08-04T16:57:52;1.15;;;0.60;;
66972;SDS011;53902;51.466;-2.586;2022-08-04T17:00:30;1.52;;;0.55;;
66972;SDS011;53902;51.466;-2.586;2022-08-04T17:03:03;1.80;;;0.57;;
66972;SDS011;53902;51.466;-2.586;2022-08-04T17:05:30;1.67;;;0.50;;
66972;SDS011;53902;51.466;-2.586;2022-08-04T17:07:56;3.80;;;0.60;;
66972;SDS011;53902;51.466;-2.586;2022-08-04T17:10:30;2.20;;;0.50;;
66972;SDS011;53902;51.466;-2.586;2022-08-04T17:12:59;0.77;;;0.47;;
66972;SDS011;53902;51.466;-2.586;2022-08-04T17:15:25;0.90;;;0.50;;
66972;SDS011;53902;51.466;-2.586;2022-08-04T17:17:50;1.63;;;0.60;;
66972;SDS011;53902;51.466;-2.586;2022-08-04T17:20:16;1.15;;;0.60;;
66972;SDS011;53902;51.466;-2.586;2022-08-04T17:22:50;1.38;;;0.60;;
66972;SDS011;53902;51.466;-2.586;2022-08-04T17:25:18;1.53;;;0.60;;
66972;SDS011;53902;51.466;-2.586;2022-08-04T17:27:43;0.50;;;0.47;;
66972;SDS011;53902;51.466;-2.586;2022-08-04T17:30:25;1.07;;;0.50;;
66972;SDS011;53902;51.466;-2.586;2022-08-04T17:32:51;1.35;;;0.90;;
66972;SDS011;53902;51.466;-2.586;2022-08-04T17:35:16;0.70;;;0.53;;
66972;SDS011;53902;51.466;-2.586;2022-08-04T17:37:42;0.93;;;0.93;;
66972;SDS011;53902;51.466;-2.586;2022-08-04T17:40:13;1.15;;;0.50;;
66972;SDS011;53902;51.466;-2.586;2022-08-04T17:42:39;0.40;;;0.40;;
66972;SDS011;53902;51.466;-2.586;2022-08-04T17:45:06;3.83;;;0.70;;
66972;SDS011;53902;51.466;-2.586;2022-08-04T17:47:47;2.35;;;0.70;;
66972;SDS011;53902;51.466;-2.586;2022-08-04T17:50:26;2.47;;;0.68;;
66972;SDS011;53902;51.466;-2.586;2022-08-04T17:52:59;0.93;;;0.63;;
66972;SDS011;53902;51.466;-2.586;2022-08-04T17:55:35;1.65;;;0.68;;
66972;SDS011;53902;51.466;-2.586;2022-08-04T17:58:15;3.70;;;0.80;;
66972;SDS011;53902;51.466;-2.586;2022-08-04T18:01:07;1.50;;;0.70;;
66972;SDS011;53902;51.466;-2.586;2022-08-04T18:03:35;1.23;;;0.82;;
66972;SDS011;53902;51.466;-2.586;2022-08-04T18:06:10;1.50;;;0.70;;
66972;SDS011;53902;51.466;-2.586;2022-08-04T18:08:36;1.37;;;0.73;;
66972;SDS011;53902;51.466;-2.586;2022-08-04T18:11:04;1.90;;;0.80;;
66972;SDS011;53902;51.466;-2.586;2022-08-04T18:13:30;3.03;;;0.70;;
66972;SDS011;53902;51.466;-2.586;2022-08-04T18:15:59;1.10;;;0.70;;
66972;SDS011;53902;51.466;-2.586;2022-08-04T18:18:28;1.50;;;0.75;;
66972;SDS011;53902;51.466;-2.586;2022-08-04T18:20:53;1.43;;;0.67;;
66972;SDS011;53902;51.466;-2.586;2022-08-04T18:23:19;1.20;;;0.53;;
66972;SDS011;53902;51.466;-2.586;2022-08-04T18:25:44;1.53;;;0.90;;
66972;SDS011;53902;51.466;-2.586;2022-08-04T18:28:15;4.88;;;1.48;;
66972;SDS011;53902;51.466;-2.586;2022-08-04T18:30:40;2.47;;;1.20;;
66972;SDS011;53902;51.466;-2.586;2022-08-04T18:33:08;1.90;;;0.80;;
66972;SDS011;53902;51.466;-2.586;2022-08-04T18:35:34;2.28;;;0.70;;
66972;SDS011;53902;51.466;-2.586;2022-08-04T18:56:03;3.30;;;0.90;;
66972;SDS011;53902;51.466;-2.586;2022-08-04T18:58:29;2.42;;;0.80;;
66972;SDS011;53902;51.466;-2.586;2022-08-04T19:00:55;2.47;;;0.63;;
66972;SDS011;53902;51.466;-2.586;2022-08-04T19:03:20;4.60;;;1.35;;
66972;SDS011;53902;51.466;-2.586;2022-08-04T19:05:46;2.83;;;1.03;;
66972;SDS011;53902;51.466;-2.586;2022-08-04T19:08:11;3.33;;;1.10;;
66972;SDS011;53902;51.466;-2.586;2022-08-04T19:10:37;1.97;;;0.80;;
66972;SDS011;53902;51.466;-2.586;2022-08-04T19:13:02;2.30;;;1.07;;
66972;SDS011;53902;51.466;-2.586;2022-08-04T19:15:28;1.93;;;0.77;;
66972;SDS011;53902;51.466;-2.586;2022-08-04T19:17:55;4.30;;;1.13;;
66972;SDS011;53902;51.466;-2.586;2022-08-04T19:20:20;1.93;;;1.00;;
66972;SDS011;53902;51.466;-2.586;2022-08-04T19:22:46;1.87;;;1.10;;
66972;SDS011;53902;51.466;-2.586;2022-08-04T19:25:12;0.97;;;0.60;;
66972;SDS011;53902;51.466;-2.586;2022-08-04T19:27:37;3.33;;;1.10;;
66972;SDS011;53902;51.466;-2.586;2022-08-04T19:30:10;7.83;;;1.50;;
66972;SDS011;53902;51.466;-2.586;2022-08-04T19:32:38;4.05;;;1.60;;
66972;SDS011;53902;51.466;-2.586;2022-08-04T19:35:06;3.42;;;0.80;;
66972;SDS011;53902;51.466;-2.586;2022-08-04T19:37:34;3.07;;;0.90;;
66972;SDS011;53902;51.466;-2.586;2022-08-04T19:40:04;2.28;;;0.70;;
66972;SDS011;53902;51.466;-2.586;2022-08-04T19:42:31;3.75;;;1.20;;
66972;SDS011;53902;51.466;-2.586;2022-08-04T19:44:56;2.70;;;1.00;;
66972;SDS011;53902;51.466;-2.586;2022-08-04T19:47:22;6.73;;;1.00;;
66972;SDS011;53902;51.466;-2.586;2022-08-04T19:49:48;4.43;;;1.20;;
66972;SDS011;53902;51.466;-2.586;2022-08-04T19:52:14;3.38;;;1.10;;
66972;SDS011;53902;51.466;-2.586;2022-08-04T19:54:39;2.63;;;0.80;;
66972;SDS011;53902;51.466;-2.586;2022-08-04T19:57:05;2.90;;;0.90;;
66972;SDS011;53902;51.466;-2.586;2022-08-04T19:59:31;4.13;;;1.10;;
66972;SDS011;53902;51.466;-2.586;2022-08-04T20:01:56;5.10;;;1.10;;
66972;SDS011;53902;51.466;-2.586;2022-08-04T20:04:24;3.93;;;1.17;;
66972;SDS011;53902;51.466;-2.586;2022-08-04T20:06:49;3.90;;;0.90;;
66972;SDS011;53902;51.466;-2.586;2022-08-04T20:09:17;1.63;;;0.80;;
66972;SDS011;53902;51.466;-2.586;2022-08-04T20:11:43;4.63;;;0.90;;
66972;SDS011;53902;51.466;-2.586;2022-08-04T20:14:10;4.32;;;0.93;;
66972;SDS011;53902;51.466;-2.586;2022-08-04T20:16:36;3.57;;;1.00;;
66972;SDS011;53902;51.466;-2.586;2022-08-04T20:19:02;3.47;;;1.20;;
66972;SDS011;53902;51.466;-2.586;2022-08-04T20:21:27;1.60;;;0.77;;
66972;SDS011;53902;51.466;-2.586;2022-08-04T20:23:53;1.07;;;0.80;;
66972;SDS011;53902;51.466;-2.586;2022-08-04T20:26:24;3.67;;;0.80;;
66972;SDS011;53902;51.466;-2.586;2022-08-04T20:37:10;2.30;;;0.90;;
66972;SDS011;53902;51.466;-2.586;2022-08-04T20:39:46;1.20;;;0.80;;
66972;SDS011;53902;51.466;-2.586;2022-08-04T20:42:11;1.27;;;0.47;;
66972;SDS011;53902;51.466;-2.586;2022-08-04T20:44:37;2.37;;;0.67;;
66972;SDS011;53902;51.466;-2.586;2022-08-04T20:47:02;3.23;;;0.67;;
66972;SDS011;53902;51.466;-2.586;2022-08-04T20:49:28;2.07;;;0.80;;
66972;SDS011;53902;51.466;-2.586;2022-08-04T20:51:53;1.13;;;0.80;;
66972;SDS011;53902;51.466;-2.586;2022-08-04T20:54:20;1.90;;;0.70;;
66972;SDS011;53902;51.466;-2.586;2022-08-04T20:56:45;0.83;;;0.50;;